Time;durP1;ratioP1;P1;durP2;ratioP2;P2;SDS_P1;SDS_P2;PMS_P1;PMS_P2;Temp;Humidity;BMP_temperature;BMP_pressure;BME280_temperature;BME280_humidity;BME280_pressure;Samples;Min_cycle;Max_cycle;Signal;HPM_P1;HPM_P2
2022/11/25 00:01:34;;;;;;;;;;;4.10;99.90;;;;;;5036809;28;19949;-68
2022/11/25 00:04:00;;;;;;;;;;;4.00;99.90;;;;;;5054014;28;19964;-69
2022/11/25 00:06:27;;;;;;;;;;;4.00;99.90;;;;;;5056882;28;19909;-68
2022/11/25 00:08:53;;;;;;;;;;;4.10;99.90;;;;;;5056865;28;19908;-68
2022/11/25 00:11:19;;;;;;;;;;;4.00;99.90;;;;;;5038645;28;19909;-68
2022/11/25 00:13:45;;;;;;;;;;;4.10;99.90;;;;;;5055356;28;19915;-68
2022/11/25 00:16:12;;;;;;;;;;;4.10;99.90;;;;;;5056440;28;19999;-68
2022/11/25 00:18:37;;;;;;;;;;;4.10;99.90;;;;;;5056668;28;19908;-68
2022/11/25 00:21:05;;;;;;;;;;;4.10;99.90;;;;;;5056331;28;20015;-68
2022/11/25 00:23:31;;;;;;;;;;;4.10;99.90;;;;;;5056491;28;19964;-68
2022/11/25 00:25:56;;;;;;;;;;;4.20;99.90;;;;;;5056541;28;19919;-68
2022/11/25 00:28:22;;;;;;;;;;;4.20;99.90;;;;;;5056222;28;19995;-68
2022/11/25 00:30:47;;;;;;;;;;;4.30;99.90;;;;;;5054978;28;19912;-68
2022/11/25 00:33:13;;;;;;;;;;;4.30;99.90;;;;;;5054994;28;19909;-68
2022/11/25 00:35:38;;;;;;;;;;;4.30;99.90;;;;;;5055874;28;19909;-68
2022/11/25 00:38:03;;;;;;;;;;;4.30;99.90;;;;;;5056050;28;20011;-68
2022/11/25 00:40:29;;;;;;;;;;;4.40;99.90;;;;;;5055985;28;19909;-68
2022/11/25 00:45:40;;;;;;;;;;;4.30;99.90;;;;;;5055689;28;20264;-68
2022/11/25 00:48:06;;;;;;;;;;;4.30;99.90;;;;;;5055859;28;19913;-68
2022/11/25 00:50:31;;;;;;;;;;;4.30;99.90;;;;;;5055771;28;19931;-69
2022/11/25 00:52:58;;;;;;;;;;;4.30;99.90;;;;;;5037877;28;19909;-68
2022/11/25 00:55:23;;;;;;;;;;;4.30;99.90;;;;;;5055735;28;20003;-68
2022/11/25 00:57:48;;;;;;;;;;;4.30;99.90;;;;;;5055682;28;20439;-68
2022/11/25 01:00:14;;;;;;;;;;;4.30;99.90;;;;;;5054382;28;19909;-68
2022/11/25 01:02:39;;;;;;;;;;;4.40;99.90;;;;;;5055477;28;19920;-68
2022/11/25 01:05:05;;;;;;;;;;;4.40;99.90;;;;;;5055766;28;19909;-68
2022/11/25 01:07:31;;;;;;;;;;;4.50;99.90;;;;;;5055468;28;19915;-68
2022/11/25 01:09:56;;;;;;;;;;;4.50;99.90;;;;;;5055687;28;19966;-68
2022/11/25 01:12:21;;;;;;;;;;;4.60;99.90;;;;;;5055420;28;19952;-68
2022/11/25 01:14:47;;;;;;;;;;;4.60;99.90;;;;;;5055319;28;20371;-68
2022/11/25 01:17:12;;;;;;;;;;;4.60;99.90;;;;;;5055281;28;19951;-68
2022/11/25 01:19:39;;;;;;;;;;;4.70;99.90;;;;;;5055516;28;19909;-68
2022/11/25 01:22:05;;;;;;;;;;;4.70;99.90;;;;;;5055127;28;20310;-68
2022/11/25 01:24:31;;;;;;;;;;;4.70;99.90;;;;;;5055385;28;20313;-68
2022/11/25 01:26:56;;;;;;;;;;;4.70;99.90;;;;;;5055114;28;19966;-68
2022/11/25 01:29:22;;;;;;;;;;;4.60;99.90;;;;;;5055331;28;19968;-68
2022/11/25 01:31:47;;;;;;;;;;;4.60;99.90;;;;;;5054956;28;19948;-68
2022/11/25 01:34:15;;;;;;;;;;;4.60;99.90;;;;;;5054951;28;19959;-68
2022/11/25 01:36:40;;;;;;;;;;;4.70;99.90;;;;;;5054900;28;20000;-68
2022/11/25 01:39:06;;;;;;;;;;;4.60;99.90;;;;;;5055096;28;19959;-68
2022/11/25 01:41:32;;;;;;;;;;;4.70;99.90;;;;;;5054817;28;19915;-68
2022/11/25 01:44:07;;;;;;;;;;;4.70;99.90;;;;;;5054617;28;19913;-68
2022/11/25 01:46:53;;;;;;;;;;;4.70;99.90;;;;;;5054095;28;20379;-68
2022/11/25 01:49:40;;;;;;;;;;;4.70;99.90;;;;;;5054887;28;20286;-68
2022/11/25 01:52:23;;;;;;;;;;;4.80;99.90;;;;;;5054653;28;19913;-69
2022/11/25 01:54:54;;;;;;;;;;;4.90;99.90;;;;;;5054561;28;19948;-68
2022/11/25 01:57:23;;;;;;;;;;;5.00;99.90;;;;;;5054779;28;19909;-68
2022/11/25 01:59:51;;;;;;;;;;;5.10;99.90;;;;;;5054471;28;20000;-68
2022/11/25 02:02:16;;;;;;;;;;;5.20;99.90;;;;;;5036264;28;19924;-68
2022/11/25 02:04:43;;;;;;;;;;;5.30;99.90;;;;;;5036556;28;19909;-68
2022/11/25 02:07:14;;;;;;;;;;;5.30;99.90;;;;;;5054370;28;19909;-68
2022/11/25 02:09:40;;;;;;;;;;;5.30;99.90;;;;;;5054573;28;20370;-68
2022/11/25 02:12:06;;;;;;;;;;;5.40;99.90;;;;;;5054274;28;20435;-68
2022/11/25 02:14:31;;;;;;;;;;;5.40;99.90;;;;;;5054246;28;19912;-68
2022/11/25 02:16:59;;;;;;;;;;;5.50;99.90;;;;;;5054189;28;19916;-68
2022/11/25 02:19:30;;;;;;;;;;;5.50;99.90;;;;;;5054175;28;19909;-68
2022/11/25 02:21:59;;;;;;;;;;;5.50;99.90;;;;;;5036283;28;19913;-68
2022/11/25 02:24:30;;;;;;;;;;;5.60;99.90;;;;;;5053959;28;19913;-68
2022/11/25 02:26:55;;;;;;;;;;;5.60;99.90;;;;;;5053993;28;19978;-68
2022/11/25 02:29:21;;;;;;;;;;;5.70;99.90;;;;;;5054276;28;19999;-68
2022/11/25 02:31:48;;;;;;;;;;;5.80;99.90;;;;;;5053948;28;19999;-68
2022/11/25 02:34:14;;;;;;;;;;;5.80;99.90;;;;;;5053957;28;19912;-68
2022/11/25 02:36:39;;;;;;;;;;;5.90;99.90;;;;;;5053856;28;19920;-68
2022/11/25 02:39:06;;;;;;;;;;;6.00;99.90;;;;;;5053834;28;20005;-68
2022/11/25 02:41:35;;;;;;;;;;;6.00;99.90;;;;;;5054072;28;20282;-68
2022/11/25 02:44:01;;;;;;;;;;;6.20;99.90;;;;;;5053625;28;19913;-68
2022/11/25 02:46:27;;;;;;;;;;;6.20;99.90;;;;;;5053732;28;19990;-68
2022/11/25 02:48:53;;;;;;;;;;;6.30;99.90;;;;;;5053679;28;19916;-68
2022/11/25 02:51:20;;;;;;;;;;;6.40;99.90;;;;;;5053654;28;20422;-68
2022/11/25 02:53:48;;;;;;;;;;;6.50;99.90;;;;;;5053694;28;19916;-68
2022/11/25 02:56:14;;;;;;;;;;;6.50;99.90;;;;;;5053650;28;20286;-68
2022/11/25 02:58:40;;;;;;;;;;;6.60;99.90;;;;;;5053451;28;19909;-68
2022/11/25 03:01:05;;;;;;;;;;;6.60;99.90;;;;;;5053539;28;20109;-67
2022/11/25 03:03:31;;;;;;;;;;;6.70;99.90;;;;;;5053240;28;19979;-68
2022/11/25 03:05:56;;;;;;;;;;;6.80;99.90;;;;;;5053461;28;19913;-68
2022/11/25 03:08:22;;;;;;;;;;;6.80;99.90;;;;;;5053727;28;19959;-68
2022/11/25 03:10:48;;;;;;;;;;;6.80;99.90;;;;;;5053429;28;20281;-68
2022/11/25 03:13:13;;;;;;;;;;;6.80;99.90;;;;;;5053682;28;19916;-68
2022/11/25 03:15:39;;;;;;;;;;;6.90;99.90;;;;;;5053661;28;19908;-68
2022/11/25 03:18:04;;;;;;;;;;;7.00;99.90;;;;;;5053387;28;19931;-68
2022/11/25 03:20:30;;;;;;;;;;;7.00;99.90;;;;;;5053332;28;19909;-68
2022/11/25 03:22:56;;;;;;;;;;;7.00;99.90;;;;;;5053255;28;19912;-68
2022/11/25 03:25:21;;;;;;;;;;;7.10;99.90;;;;;;5053314;28;19909;-68
2022/11/25 03:27:47;;;;;;;;;;;7.10;99.90;;;;;;5053278;28;19909;-68
2022/11/25 03:30:14;;;;;;;;;;;7.10;99.90;;;;;;5053305;28;19916;-68
2022/11/25 03:32:39;;;;;;;;;;;7.20;99.90;;;;;;5053515;28;19916;-68
2022/11/25 03:35:05;;;;;;;;;;;7.30;99.90;;;;;;5053486;28;19909;-68
2022/11/25 03:37:30;;;;;;;;;;;7.30;99.90;;;;;;5053202;28;19909;-68
2022/11/25 03:39:56;;;;;;;;;;;7.30;99.90;;;;;;5053166;28;19920;-68
2022/11/25 03:42:21;;;;;;;;;;;7.30;99.90;;;;;;5053058;28;19952;-68
2022/11/25 03:44:47;;;;;;;;;;;7.30;99.90;;;;;;5053380;28;19913;-68
2022/11/25 03:47:12;;;;;;;;;;;7.30;99.90;;;;;;5053148;28;20414;-68
2022/11/25 03:49:38;;;;;;;;;;;7.20;99.90;;;;;;5053035;28;19909;-68
2022/11/25 03:52:03;;;;;;;;;;;7.20;99.90;;;;;;5051827;28;19909;-68
2022/11/25 03:54:29;;;;;;;;;;;7.20;99.90;;;;;;5053309;28;19962;-68
2022/11/25 03:56:54;;;;;;;;;;;7.20;99.90;;;;;;5053034;28;19944;-68
2022/11/25 03:59:20;;;;;;;;;;;7.20;99.90;;;;;;5052999;28;20374;-68
2022/11/25 04:01:45;;;;;;;;;;;7.20;99.90;;;;;;5035161;28;19909;-69
2022/11/25 04:04:11;;;;;;;;;;;7.20;99.90;;;;;;5051553;28;19921;-68
2022/11/25 04:06:38;;;;;;;;;;;7.20;99.90;;;;;;5053228;28;20420;-68
2022/11/25 04:09:05;;;;;;;;;;;7.20;99.90;;;;;;5052039;28;19999;-68
2022/11/25 04:14:16;;;;;;;;;;;7.20;99.90;;;;;;5056357;28;19916;-68
2022/11/25 04:16:42;;;;;;;;;;;7.20;99.90;;;;;;5056748;28;19908;-68
2022/11/25 04:19:07;;;;;;;;;;;7.30;99.90;;;;;;5056664;28;19909;-68
2022/11/25 04:21:32;;;;;;;;;;;7.30;99.90;;;;;;5056420;28;20038;-68
2022/11/25 04:23:58;;;;;;;;;;;7.30;99.90;;;;;;5056464;28;20366;-68
2022/11/25 04:26:23;;;;;;;;;;;7.40;99.90;;;;;;5056295;28;19909;-68
2022/11/25 04:28:49;;;;;;;;;;;7.60;99.90;;;;;;5056253;28;19915;-68
2022/11/25 04:31:14;;;;;;;;;;;7.70;99.90;;;;;;5056173;28;19909;-69
2022/11/25 04:33:40;;;;;;;;;;;7.70;99.90;;;;;;5056445;28;19908;-68
2022/11/25 04:36:06;;;;;;;;;;;7.70;99.90;;;;;;5055219;28;19912;-70
2022/11/25 04:38:31;;;;;;;;;;;7.60;99.90;;;;;;5056041;28;20385;-67
2022/11/25 04:40:57;;;;;;;;;;;7.80;99.90;;;;;;5056033;28;19909;-67
2022/11/25 04:43:22;;;;;;;;;;;7.70;99.90;;;;;;5056146;28;19974;-68
2022/11/25 04:45:48;;;;;;;;;;;7.60;99.90;;;;;;5055944;28;19909;-68
2022/11/25 04:48:14;;;;;;;;;;;7.60;99.90;;;;;;5055884;28;20337;-68
2022/11/25 04:50:39;;;;;;;;;;;7.50;99.90;;;;;;5055809;28;19918;-68
2022/11/25 04:53:05;;;;;;;;;;;7.50;99.90;;;;;;5056057;28;19909;-68
2022/11/25 04:55:30;;;;;;;;;;;7.40;99.90;;;;;;5055757;28;19908;-68
2022/11/25 04:57:55;;;;;;;;;;;7.30;99.90;;;;;;5055683;28;20329;-68
2022/11/25 05:00:21;;;;;;;;;;;7.30;99.90;;;;;;5055628;28;19909;-68
2022/11/25 05:02:47;;;;;;;;;;;7.20;99.90;;;;;;5037492;28;19925;-68
2022/11/25 05:05:12;;;;;;;;;;;7.20;99.90;;;;;;5055663;28;19959;-68
2022/11/25 05:07:38;;;;;;;;;;;7.20;99.90;;;;;;5055498;28;19909;-68
2022/11/25 05:10:04;;;;;;;;;;;7.20;99.90;;;;;;5055416;28;19915;-68
2022/11/25 05:12:30;;;;;;;;;;;7.20;99.90;;;;;;5055410;28;19963;-68
2022/11/25 05:14:56;;;;;;;;;;;7.40;99.90;;;;;;5055378;28;20382;-68
2022/11/25 05:17:23;;;;;;;;;;;7.50;99.90;;;;;;5055314;28;19916;-68
2022/11/25 05:19:48;;;;;;;;;;;7.70;99.90;;;;;;5055275;28;19934;-68
2022/11/25 05:22:15;;;;;;;;;;;7.80;99.90;;;;;;5055179;28;20298;-68
2022/11/25 05:24:41;;;;;;;;;;;8.00;99.90;;;;;;5055138;28;19915;-68
2022/11/25 05:27:06;;;;;;;;;;;8.10;99.90;;;;;;5055407;28;19913;-68
2022/11/25 05:29:32;;;;;;;;;;;8.20;99.90;;;;;;5055061;28;19909;-68
2022/11/25 05:31:57;;;;;;;;;;;8.20;99.90;;;;;;5055036;28;19931;-68
2022/11/25 05:34:23;;;;;;;;;;;8.20;99.90;;;;;;5055039;28;19915;-68
2022/11/25 05:36:48;;;;;;;;;;;8.30;99.90;;;;;;5037095;28;19995;-68
2022/11/25 05:39:14;;;;;;;;;;;8.30;99.90;;;;;;5055172;28;19932;-68
2022/11/25 05:41:39;;;;;;;;;;;8.40;99.90;;;;;;5054917;28;19916;-68
2022/11/25 05:44:05;;;;;;;;;;;8.40;99.90;;;;;;5054761;28;19920;-70
2022/11/25 05:46:30;;;;;;;;;;;8.40;99.90;;;;;;5054759;28;19909;-68
2022/11/25 05:48:56;;;;;;;;;;;8.40;99.90;;;;;;5054732;28;19919;-68
2022/11/25 05:51:22;;;;;;;;;;;8.40;99.90;;;;;;5054934;28;19932;-68
2022/11/25 05:53:48;;;;;;;;;;;8.50;99.90;;;;;;5054852;28;20368;-68
2022/11/25 05:56:13;;;;;;;;;;;8.40;99.90;;;;;;5054600;28;19909;-68
2022/11/25 05:58:38;;;;;;;;;;;8.40;99.90;;;;;;5054544;28;20037;-69
2022/11/25 06:01:07;;;;;;;;;;;8.40;99.90;;;;;;5054787;28;19956;-68
2022/11/25 06:03:32;;;;;;;;;;;8.40;99.90;;;;;;5054289;28;19971;-68
2022/11/25 06:05:58;;;;;;;;;;;8.40;99.90;;;;;;5054344;28;19909;-68
2022/11/25 06:08:24;;;;;;;;;;;8.40;99.90;;;;;;5054339;28;19909;-68
2022/11/25 06:10:49;;;;;;;;;;;8.40;99.90;;;;;;5054361;28;19908;-68
2022/11/25 06:13:15;;;;;;;;;;;8.40;99.90;;;;;;5054195;28;19913;-68
2022/11/25 06:15:41;;;;;;;;;;;8.50;99.90;;;;;;5054328;28;19909;-67
2022/11/25 06:18:07;;;;;;;;;;;8.40;99.90;;;;;;5054471;28;19909;-68
2022/11/25 06:20:32;;;;;;;;;;;8.40;99.90;;;;;;5054118;28;19998;-68
2022/11/25 06:22:58;;;;;;;;;;;8.50;99.90;;;;;;5054012;28;19971;-68
2022/11/25 06:25:23;;;;;;;;;;;8.50;99.90;;;;;;5054020;28;19909;-68
2022/11/25 06:27:49;;;;;;;;;;;8.40;99.90;;;;;;5053964;28;19915;-68
2022/11/25 06:30:14;;;;;;;;;;;8.50;99.90;;;;;;5053988;28;19916;-69
2022/11/25 06:32:40;;;;;;;;;;;8.50;99.90;;;;;;5053428;28;19915;-68
2022/11/25 06:35:05;;;;;;;;;;;8.50;99.90;;;;;;5054135;28;19955;-69
2022/11/25 06:37:31;;;;;;;;;;;8.50;99.90;;;;;;5036006;28;20386;-69
2022/11/25 06:39:57;;;;;;;;;;;8.50;99.90;;;;;;5054088;28;19913;-69
2022/11/25 06:42:22;;;;;;;;;;;8.50;99.90;;;;;;5053661;28;20321;-69
2022/11/25 06:44:48;;;;;;;;;;;8.50;99.90;;;;;;5053703;28;19909;-68
2022/11/25 06:47:13;;;;;;;;;;;8.40;99.90;;;;;;5052501;28;19909;-69
2022/11/25 06:49:39;;;;;;;;;;;8.40;99.90;;;;;;5053655;28;19908;-69
2022/11/25 06:52:04;;;;;;;;;;;8.40;99.90;;;;;;5053603;28;19908;-69
2022/11/25 06:54:30;;;;;;;;;;;8.40;99.90;;;;;;5052256;28;19909;-68
2022/11/25 06:56:55;;;;;;;;;;;8.40;99.90;;;;;;5053543;28;19909;-68
2022/11/25 06:59:21;;;;;;;;;;;8.40;99.90;;;;;;5050338;28;19916;-68
2022/11/25 07:01:47;;;;;;;;;;;8.40;99.90;;;;;;5020187;28;19921;-68
2022/11/25 07:04:12;;;;;;;;;;;8.40;99.90;;;;;;5069084;28;20400;-69
2022/11/25 07:06:38;;;;;;;;;;;8.40;99.90;;;;;;5066323;28;20290;-68
2022/11/25 07:09:03;;;;;;;;;;;8.40;99.90;;;;;;5059779;28;19974;-68
2022/11/25 07:11:30;;;;;;;;;;;8.40;99.90;;;;;;5059915;28;19913;-68
2022/11/25 07:13:57;;;;;;;;;;;8.40;99.90;;;;;;5049802;28;19952;-68
2022/11/25 07:16:23;;;;;;;;;;;8.40;99.90;;;;;;5071917;28;19955;-68
2022/11/25 07:18:48;;;;;;;;;;;8.40;99.90;;;;;;5052590;28;19913;-67
2022/11/25 07:21:15;;;;;;;;;;;8.40;99.90;;;;;;5053481;28;19917;-68
2022/11/25 07:23:41;;;;;;;;;;;8.50;99.90;;;;;;5051717;28;19956;-68
2022/11/25 07:26:09;;;;;;;;;;;8.60;99.90;;;;;;5046955;28;19948;-68
2022/11/25 07:28:34;;;;;;;;;;;8.60;99.90;;;;;;5063225;28;20007;-68
2022/11/25 07:31:20;;;;;;;;;;;8.50;99.90;;;;;;5058013;28;19940;-68
2022/11/25 07:33:46;;;;;;;;;;;8.50;99.90;;;;;;5051532;28;19912;-68
2022/11/25 07:36:12;;;;;;;;;;;8.50;99.90;;;;;;5052214;28;19954;-68
2022/11/25 07:38:38;;;;;;;;;;;8.50;99.90;;;;;;5035128;28;19942;-68
2022/11/25 07:41:04;;;;;;;;;;;8.50;99.90;;;;;;5052029;28;19913;-68
2022/11/25 07:43:30;;;;;;;;;;;8.50;99.90;;;;;;5053064;28;19912;-68
2022/11/25 07:45:55;;;;;;;;;;;8.50;99.90;;;;;;5055043;28;19932;-68
2022/11/25 07:48:21;;;;;;;;;;;8.50;99.90;;;;;;5055724;28;19936;-68
2022/11/25 07:50:48;;;;;;;;;;;8.50;99.90;;;;;;5035614;28;19917;-69
2022/11/25 07:53:14;;;;;;;;;;;8.50;99.90;;;;;;5053909;28;19920;-68
2022/11/25 07:55:40;;;;;;;;;;;8.50;99.90;;;;;;5057996;28;19912;-69
2022/11/25 07:58:05;;;;;;;;;;;8.50;99.90;;;;;;5057268;28;19928;-69
2022/11/25 08:00:30;;;;;;;;;;;8.50;99.90;;;;;;5055002;28;19917;-69
2022/11/25 08:02:56;;;;;;;;;;;8.50;99.90;;;;;;5056242;28;20267;-68
2022/11/25 08:05:21;;;;;;;;;;;8.50;99.90;;;;;;5055612;28;19982;-68
2022/11/25 08:07:47;;;;;;;;;;;8.50;99.90;;;;;;5056306;28;19924;-68
2022/11/25 08:10:12;;;;;;;;;;;8.50;99.90;;;;;;5053881;28;19920;-69
2022/11/25 08:12:38;;;;;;;;;;;8.60;99.90;;;;;;5052443;28;19916;-68
2022/11/25 08:15:03;;;;;;;;;;;8.50;99.90;;;;;;5055202;28;19968;-69
2022/11/25 08:17:29;;;;;;;;;;;8.50;99.90;;;;;;5058986;28;19996;-69
2022/11/25 08:19:54;;;;;;;;;;;8.50;99.90;;;;;;5053324;28;20386;-68
2022/11/25 08:22:20;;;;;;;;;;;8.50;99.90;;;;;;5054668;28;19913;-68
2022/11/25 08:24:45;;;;;;;;;;;8.50;99.90;;;;;;5052804;28;19913;-68
2022/11/25 08:27:11;;;;;;;;;;;8.50;99.90;;;;;;5054554;28;20394;-69
2022/11/25 08:29:36;;;;;;;;;;;8.60;99.90;;;;;;5055145;28;20290;-69
2022/11/25 08:32:01;;;;;;;;;;;8.60;99.90;;;;;;5055303;28;19931;-69
2022/11/25 08:34:27;;;;;;;;;;;8.60;99.90;;;;;;5035076;28;20019;-69
2022/11/25 08:36:52;;;;;;;;;;;8.70;99.90;;;;;;5055647;28;19964;-69
2022/11/25 08:39:19;;;;;;;;;;;8.70;99.90;;;;;;5053379;28;19960;-69
2022/11/25 08:41:45;;;;;;;;;;;8.70;99.90;;;;;;5054571;28;19913;-69
2022/11/25 08:44:12;;;;;;;;;;;8.70;99.90;;;;;;5037720;28;19919;-69
2022/11/25 08:46:38;;;;;;;;;;;8.70;99.90;;;;;;5055597;28;19920;-69
2022/11/25 08:49:05;;;;;;;;;;;8.70;99.90;;;;;;5053697;28;20015;-69
2022/11/25 08:51:32;;;;;;;;;;;8.70;99.90;;;;;;5053555;28;19917;-69
2022/11/25 08:53:57;;;;;;;;;;;8.70;99.90;;;;;;5073838;28;20019;-69
2022/11/25 08:56:23;;;;;;;;;;;8.70;99.90;;;;;;5042190;28;19960;-69
2022/11/25 08:58:49;;;;;;;;;;;8.70;99.90;;;;;;5053762;28;20330;-69
2022/11/25 09:01:16;;;;;;;;;;;8.70;99.90;;;;;;5053656;28;19927;-69
2022/11/25 09:03:43;;;;;;;;;;;8.80;99.90;;;;;;5052177;28;19935;-69
2022/11/25 09:06:09;;;;;;;;;;;8.80;99.90;;;;;;5055380;28;19943;-69
2022/11/25 09:08:36;;;;;;;;;;;8.80;99.90;;;;;;5053488;28;20374;-69
2022/11/25 09:11:02;;;;;;;;;;;8.80;99.90;;;;;;5035429;28;19916;-69
2022/11/25 09:13:27;;;;;;;;;;;8.90;99.90;;;;;;5035532;28;19909;-70
2022/11/25 09:15:53;;;;;;;;;;;9.00;99.90;;;;;;5041604;28;19913;-69
2022/11/25 09:18:19;;;;;;;;;;;9.00;99.90;;;;;;5054301;28;19916;-69
2022/11/25 09:20:45;;;;;;;;;;;9.00;99.90;;;;;;5053433;28;19912;-69
2022/11/25 09:23:11;;;;;;;;;;;9.10;99.90;;;;;;5061343;28;20337;-69
2022/11/25 09:25:36;;;;;;;;;;;9.10;99.90;;;;;;5063632;28;19912;-69
2022/11/25 09:28:02;;;;;;;;;;;9.20;99.90;;;;;;5055085;28;20030;-69
2022/11/25 09:30:28;;;;;;;;;;;9.20;99.90;;;;;;5054464;28;20396;-69
2022/11/25 09:32:54;;;;;;;;;;;9.30;99.90;;;;;;5055418;28;20003;-69
2022/11/25 09:35:20;;;;;;;;;;;9.20;99.90;;;;;;5038379;28;19917;-69
2022/11/25 09:37:46;;;;;;;;;;;9.20;99.90;;;;;;5059894;28;19970;-69
2022/11/25 09:40:31;;;;;;;;;;;9.20;99.90;;;;;;5059427;28;20359;-70
2022/11/25 09:48:46;;;;;;;;;;;10.10;99.90;;;;;;5052898;28;20453;-69
2022/11/25 09:51:18;;;;;;;;;;;10.10;99.90;;;;;;5051427;28;19919;-69
2022/11/25 09:53:46;;;;;;;;;;;10.20;99.90;;;;;;5055850;28;19919;-70
2022/11/25 09:56:18;;;;;;;;;;;10.60;99.90;;;;;;5074119;28;19912;-70
2022/11/25 09:58:47;;;;;;;;;;;11.40;99.90;;;;;;5060855;28;20400;-70
2022/11/25 10:01:15;;;;;;;;;;;11.70;99.90;;;;;;5052796;28;19920;-70
2022/11/25 10:03:44;;;;;;;;;;;12.10;99.90;;;;;;5052310;28;19920;-70
2022/11/25 10:06:15;;;;;;;;;;;12.60;99.90;;;;;;5060781;28;19920;-70
2022/11/25 10:08:42;;;;;;;;;;;12.60;99.90;;;;;;5051412;28;19913;-70
2022/11/25 10:11:27;;;;;;;;;;;12.60;99.90;;;;;;5035304;28;19960;-70
2022/11/25 10:13:59;;;;;;;;;;;12.70;99.90;;;;;;5055424;28;19917;-70
2022/11/25 10:16:44;;;;;;;;;;;12.80;99.90;;;;;;5052411;28;19920;-70
2022/11/25 10:19:30;;;;;;;;;;;13.40;99.90;;;;;;5047511;28;19913;-70
2022/11/25 10:21:55;;;;;;;;;;;13.30;99.90;;;;;;5043340;28;19999;-70
2022/11/25 10:24:21;;;;;;;;;;;13.40;99.90;;;;;;5034189;28;20007;-70
2022/11/25 10:26:52;;;;;;;;;;;13.40;99.90;;;;;;5053577;28;19928;-71
2022/11/25 10:29:35;;;;;;;;;;;13.20;99.90;;;;;;5054454;28;20432;-71
2022/11/25 10:32:18;;;;;;;;;;;13.40;99.90;;;;;;5015879;28;19951;-71
2022/11/25 10:34:47;;;;;;;;;;;13.60;99.90;;;;;;5015944;28;20367;-71
2022/11/25 10:37:18;;;;;;;;;;;13.30;99.90;;;;;;5045334;28;20011;-71
2022/11/25 10:39:43;;;;;;;;;;;13.40;99.90;;;;;;5058348;28;20434;-71
2022/11/25 10:42:19;;;;;;;;;;;13.50;99.90;;;;;;5053512;28;19954;-71
2022/11/25 10:44:44;;;;;;;;;;;13.10;99.90;;;;;;5052728;28;19917;-71
2022/11/25 10:47:31;;;;;;;;;;;13.00;99.90;;;;;;5035227;28;19959;-71
2022/11/25 10:50:16;;;;;;;;;;;13.00;99.90;;;;;;5049843;28;19917;-71
2022/11/25 10:52:47;;;;;;;;;;;13.00;99.90;;;;;;5053276;28;19909;-71
2022/11/25 10:55:23;;;;;;;;;;;13.40;99.90;;;;;;5053316;28;19909;-71
2022/11/25 10:57:48;;;;;;;;;;;13.20;99.90;;;;;;5052141;28;19962;-71
2022/11/25 11:00:34;;;;;;;;;;;13.30;99.90;;;;;;5052724;28;19913;-71
2022/11/25 11:03:11;;;;;;;;;;;13.10;99.90;;;;;;5050521;28;19921;-71
2022/11/25 11:05:42;;;;;;;;;;;13.00;99.90;;;;;;5053289;28;19909;-70
2022/11/25 11:11:09;;;;;;;;;;;13.00;99.90;;;;;;5090670;27;19926;-69
2022/11/25 11:13:34;;;;;;;;;;;12.90;99.90;;;;;;5073125;28;19939;-69
2022/11/25 11:15:59;;;;;;;;;;;12.70;99.90;;;;;;5070822;28;19913;-69
2022/11/25 11:18:27;;;;;;;;;;;12.40;99.90;;;;;;5060896;28;20389;-69
2022/11/25 11:20:55;;;;;;;;;;;12.60;99.90;;;;;;5057106;28;19913;-69
2022/11/25 11:23:21;;;;;;;;;;;12.10;99.90;;;;;;5054533;28;19917;-69
2022/11/25 11:26:03;;;;;;;;;;;11.90;99.90;;;;;;5071621;28;19951;-69
2022/11/25 11:28:36;;;;;;;;;;;11.90;99.90;;;;;;5072813;28;19919;-69
2022/11/25 11:31:06;;;;;;;;;;;11.90;99.90;;;;;;5090633;28;19909;-69
2022/11/25 11:33:35;;;;;;;;;;;11.90;99.90;;;;;;5072775;28;20373;-69
2022/11/25 11:36:07;;;;;;;;;;;11.70;99.90;;;;;;5069851;28;20374;-69
2022/11/25 11:38:35;;;;;;;;;;;11.70;99.90;;;;;;5070346;28;19937;-69
2022/11/25 11:41:08;;;;;;;;;;;11.80;99.90;;;;;;5069975;28;19915;-69
2022/11/25 11:43:55;;;;;;;;;;;12.00;99.90;;;;;;5065926;28;19924;-69
2022/11/25 11:46:32;;;;;;;;;;;12.00;99.90;;;;;;5070149;28;20297;-69
2022/11/25 11:49:17;;;;;;;;;;;11.90;99.90;;;;;;5065466;28;20339;-69
2022/11/25 11:52:02;;;;;;;;;;;11.70;99.90;;;;;;5069979;28;20011;-69
2022/11/25 11:54:34;;;;;;;;;;;11.80;99.90;;;;;;5065816;28;19921;-69
2022/11/25 11:57:04;;;;;;;;;;;11.80;99.90;;;;;;5074598;28;19916;-69
2022/11/25 11:59:39;;;;;;;;;;;11.80;99.90;;;;;;5069722;28;19916;-69
2022/11/25 12:02:24;;;;;;;;;;;11.80;99.90;;;;;;5058676;28;19912;-69
2022/11/25 12:05:01;;;;;;;;;;;11.90;99.90;;;;;;5061226;28;19938;-69
2022/11/25 12:07:32;;;;;;;;;;;12.20;99.90;;;;;;5059113;28;19916;-69
2022/11/25 12:10:01;;;;;;;;;;;12.10;99.90;;;;;;5074933;28;19957;-69
2022/11/25 12:12:36;;;;;;;;;;;12.10;99.90;;;;;;5080241;28;19912;-69
2022/11/25 12:15:11;;;;;;;;;;;12.00;99.90;;;;;;5082935;28;19913;-70
2022/11/25 12:17:43;;;;;;;;;;;11.90;99.90;;;;;;5080822;28;20393;-69
2022/11/25 12:20:16;;;;;;;;;;;12.00;99.90;;;;;;5077168;28;20435;-69
2022/11/25 12:22:47;;;;;;;;;;;12.00;99.90;;;;;;5062110;28;19913;-70
2022/11/25 12:25:22;;;;;;;;;;;11.90;99.90;;;;;;5076105;28;19913;-69
2022/11/25 12:27:54;;;;;;;;;;;11.80;99.90;;;;;;5076004;28;19915;-69
2022/11/25 12:30:21;;;;;;;;;;;11.60;99.90;;;;;;5076022;28;19916;-69
2022/11/25 12:32:50;;;;;;;;;;;11.50;99.90;;;;;;5075178;28;19908;-69
2022/11/25 12:35:21;;;;;;;;;;;11.60;99.90;;;;;;5066473;28;20276;-69
2022/11/25 12:37:51;;;;;;;;;;;11.70;99.90;;;;;;5069620;28;20427;-69
2022/11/25 12:40:36;;;;;;;;;;;11.70;99.90;;;;;;5074597;28;20343;-69
2022/11/25 12:43:18;;;;;;;;;;;11.70;99.90;;;;;;5076672;28;20328;-69
2022/11/25 12:45:45;;;;;;;;;;;11.80;99.90;;;;;;5080861;28;20270;-69
2022/11/25 12:48:11;;;;;;;;;;;11.70;99.90;;;;;;5090710;28;19912;-69
2022/11/25 12:50:56;;;;;;;;;;;11.70;99.90;;;;;;5066975;28;20340;-69
2022/11/25 12:53:30;;;;;;;;;;;11.60;99.90;;;;;;5063368;28;19913;-69
2022/11/25 12:55:58;;;;;;;;;;;11.50;99.90;;;;;;5078626;28;19912;-69
2022/11/25 12:58:43;;;;;;;;;;;11.50;99.90;;;;;;5055242;28;19920;-69
2022/11/25 13:01:13;;;;;;;;;;;11.60;99.90;;;;;;5077638;28;20015;-69
2022/11/25 13:03:59;;;;;;;;;;;11.50;99.90;;;;;;5074117;28;19912;-70
2022/11/25 13:06:30;;;;;;;;;;;11.60;99.90;;;;;;5084683;28;19958;-69
2022/11/25 13:09:16;;;;;;;;;;;11.70;99.90;;;;;;5059909;28;20016;-69
2022/11/25 13:11:59;;;;;;;;;;;11.80;99.90;;;;;;5064910;28;19916;-69
2022/11/25 13:14:28;;;;;;;;;;;11.80;99.90;;;;;;5068315;28;19974;-69
2022/11/25 13:16:55;;;;;;;;;;;11.80;99.90;;;;;;5078279;28;19912;-69
2022/11/25 13:19:21;;;;;;;;;;;11.70;99.90;;;;;;5056172;28;20362;-69
2022/11/25 13:22:07;;;;;;;;;;;11.70;99.90;;;;;;5066652;28;19920;-69
2022/11/25 13:24:36;;;;;;;;;;;11.60;99.90;;;;;;5074666;28;19912;-70
2022/11/25 13:27:04;;;;;;;;;;;11.60;99.90;;;;;;5070193;28;19913;-69
2022/11/25 13:32:29;;;;;;;;;;;11.50;99.90;;;;;;5085287;28;19917;-68
2022/11/25 13:35:14;;;;;;;;;;;11.60;99.90;;;;;;5070718;28;19913;-69
2022/11/25 13:37:40;;;;;;;;;;;11.50;99.90;;;;;;5090791;28;20350;-69
2022/11/25 13:40:25;;;;;;;;;;;11.50;99.90;;;;;;5089809;28;19991;-69
2022/11/25 13:42:51;;;;;;;;;;;11.40;99.90;;;;;;5088847;28;20019;-69
2022/11/25 13:45:24;;;;;;;;;;;11.50;99.90;;;;;;5089285;28;20440;-69
2022/11/25 13:47:50;;;;;;;;;;;11.50;99.90;;;;;;5089259;28;20437;-69
2022/11/25 13:50:21;;;;;;;;;;;11.40;99.90;;;;;;5088949;28;19959;-69
2022/11/25 13:53:04;;;;;;;;;;;11.50;99.90;;;;;;5089338;28;19909;-70
2022/11/25 13:55:38;;;;;;;;;;;11.50;99.90;;;;;;5090070;28;19909;-69
2022/11/25 13:58:14;;;;;;;;;;;11.50;99.90;;;;;;5090849;28;19935;-70
2022/11/25 14:00:49;;;;;;;;;;;11.50;99.90;;;;;;5090889;28;20381;-69
2022/11/25 14:06:04;;;;;;;;;;;11.40;99.90;;;;;;5132112;27;19911;-69
2022/11/25 14:08:36;;;;;;;;;;;11.30;99.90;;;;;;5131865;28;19957;-71
2022/11/25 14:13:58;;;;;;;;;;;11.20;99.90;;;;;;5071053;28;19919;-69
2022/11/25 14:16:43;;;;;;;;;;;11.30;99.90;;;;;;5070794;28;19943;-69
2022/11/25 14:19:15;;;;;;;;;;;11.20;99.90;;;;;;5070686;28;20353;-69
2022/11/25 14:22:00;;;;;;;;;;;11.20;99.90;;;;;;5070745;28;19963;-69
2022/11/25 14:24:34;;;;;;;;;;;11.20;99.90;;;;;;5070759;28;19916;-69
2022/11/25 14:27:00;;;;;;;;;;;11.00;99.90;;;;;;5070674;28;19909;-68
2022/11/25 14:29:35;;;;;;;;;;;10.90;99.90;;;;;;5070892;28;19959;-68
2022/11/25 14:32:03;;;;;;;;;;;10.90;99.90;;;;;;5070823;28;19916;-68
2022/11/25 14:34:32;;;;;;;;;;;10.90;99.90;;;;;;5070580;28;19958;-68
2022/11/25 14:37:02;;;;;;;;;;;10.80;99.90;;;;;;5069162;28;20376;-68
2022/11/25 14:39:46;;;;;;;;;;;10.80;99.90;;;;;;5070373;28;19952;-68
2022/11/25 14:42:13;;;;;;;;;;;10.70;99.90;;;;;;5070305;28;19908;-68
2022/11/25 14:44:47;;;;;;;;;;;10.80;99.90;;;;;;5070539;28;20366;-68
2022/11/25 14:47:13;;;;;;;;;;;10.70;99.90;;;;;;5070562;28;20374;-68
2022/11/25 14:49:41;;;;;;;;;;;10.70;99.90;;;;;;5070225;28;19972;-68
2022/11/25 14:52:07;;;;;;;;;;;10.70;99.90;;;;;;5068840;28;20030;-68
2022/11/25 14:54:38;;;;;;;;;;;10.70;99.90;;;;;;5070070;28;19963;-68
2022/11/25 14:57:03;;;;;;;;;;;10.70;99.90;;;;;;5070088;28;19908;-68